createdAt,value
2022-08-30T00:00:17.867Z,99752.34
2022-08-30T00:02:47.357Z,99744.28
2022-08-30T00:05:18.473Z,99749.59
2022-08-30T00:07:47.437Z,99746.50
2022-08-30T00:10:20.372Z,99746.59
2022-08-30T00:12:49.339Z,99743.88
2022-08-30T00:15:20.925Z,99743.72
2022-08-30T00:17:49.939Z,99743.53
2022-08-30T00:20:20.995Z,99745.97
2022-08-30T00:22:50.014Z,99743.34
2022-08-30T00:25:20.296Z,99743.22
2022-08-30T00:27:49.013Z,99744.78
2022-08-30T00:30:19.718Z,99741.84
2022-08-30T00:32:48.434Z,99747.34
2022-08-30T00:35:20.532Z,99752.03
2022-08-30T00:37:50.857Z,99741.75
2022-08-30T00:40:20.701Z,99746.19
2022-08-30T00:42:59.187Z,99746.72
2022-08-30T00:45:31.922Z,99758.19
2022-08-30T00:48:00.934Z,99749.69
2022-08-30T00:50:32.880Z,99747.44
2022-08-30T00:53:03.514Z,99747.13
2022-08-30T00:55:33.266Z,99746.72
2022-08-30T00:58:05.255Z,99749.87
2022-08-30T01:00:35.557Z,99744.72
2022-08-30T01:03:05.691Z,99740.56
2022-08-30T01:05:34.288Z,99742.59
2022-08-30T01:08:07.446Z,99744.19
2022-08-30T01:10:36.901Z,99737.16
2022-08-30T01:13:06.118Z,99737.81
2022-08-30T01:15:36.196Z,99741.84
2022-08-30T01:18:07.708Z,99739.41
2022-08-30T01:20:40.258Z,99741.00
2022-08-30T01:23:13.484Z,99737.50
2022-08-30T01:25:44.284Z,99737.38
2022-08-30T01:28:16.086Z,99736.13
2022-08-30T01:30:44.949Z,99731.44
2022-08-30T01:33:14.334Z,99733.28
2022-08-30T01:35:48.934Z,99733.47
2022-08-30T01:38:19.751Z,99732.81
2022-08-30T01:40:48.581Z,99733.03
2022-08-30T01:43:18.400Z,99730.94
2022-08-30T01:45:47.379Z,99734.63
2022-08-30T01:48:16.061Z,99729.75
2022-08-30T01:50:45.168Z,99728.28
2022-08-30T01:53:14.142Z,99730.81
2022-08-30T01:55:44.332Z,99731.03
2022-08-30T01:58:13.203Z,99729.97
2022-08-30T02:00:42.290Z,99723.16
2022-08-30T02:03:11.441Z,99720.97
2022-08-30T02:05:40.294Z,99722.75
2022-08-30T02:08:08.962Z,99721.03
2022-08-30T02:10:37.571Z,99714.47
2022-08-30T02:13:07.824Z,99722.31
2022-08-30T02:15:41.684Z,99726.34
2022-08-30T02:18:11.736Z,99723.56
2022-08-30T02:20:40.975Z,99718.00
2022-08-30T02:23:09.605Z,99713.63
2022-08-30T02:25:38.523Z,99711.81
2022-08-30T02:28:09.217Z,99722.72
2022-08-30T02:30:38.577Z,99717.69
2022-08-30T02:33:07.144Z,99718.97
2022-08-30T02:35:35.840Z,99723.50
2022-08-30T02:38:05.387Z,99728.97
2022-08-30T02:40:34.717Z,99725.47
2022-08-30T02:43:03.460Z,99725.41
2022-08-30T02:45:35.533Z,99721.50
2022-08-30T02:48:04.636Z,99723.44
2022-08-30T02:50:33.519Z,99726.13
2022-08-30T02:53:02.163Z,99730.44
2022-08-30T02:55:30.966Z,99726.34
2022-08-30T02:57:59.905Z,99731.59
2022-08-30T03:00:28.516Z,99726.50
2022-08-30T03:02:59.108Z,99721.22
2022-08-30T03:05:28.205Z,99719.19
2022-08-30T03:07:56.850Z,99718.75
2022-08-30T03:10:25.463Z,99726.37
2022-08-30T03:12:54.444Z,99725.28
2022-08-30T03:15:25.381Z,99717.44
2022-08-30T03:17:55.297Z,99728.09
2022-08-30T03:20:25.816Z,99727.44
2022-08-30T03:22:54.945Z,99738.16
2022-08-30T03:25:23.904Z,99734.25
2022-08-30T03:27:56.714Z,99740.19
2022-08-30T03:30:25.651Z,99744.34
2022-08-30T03:32:54.369Z,99737.94
2022-08-30T03:35:23.009Z,99750.78
2022-08-30T03:37:56.128Z,99750.69
2022-08-30T03:40:25.338Z,99752.09
2022-08-30T03:42:55.185Z,99752.41
2022-08-30T03:45:23.921Z,99751.38
2022-08-30T03:47:52.550Z,99762.13
2022-08-30T03:50:21.523Z,99755.91
2022-08-30T03:52:50.090Z,99760.81
2022-08-30T03:55:20.874Z,99757.72
2022-08-30T03:57:49.551Z,99761.19
2022-08-30T04:00:20.853Z,99765.63
2022-08-30T04:02:49.736Z,99768.16
2022-08-30T04:05:18.775Z,99762.03
2022-08-30T04:07:47.570Z,99767.03
2022-08-30T04:10:16.561Z,99766.75
2022-08-30T04:12:49.685Z,99765.63
2022-08-30T04:15:22.530Z,99771.09
2022-08-30T04:17:51.167Z,99783.47
2022-08-30T04:20:20.364Z,99781.38
2022-08-30T04:22:49.050Z,99787.22
2022-08-30T04:25:17.720Z,99790.84
2022-08-30T04:27:47.972Z,99793.56
2022-08-30T04:30:17.830Z,99796.22
2022-08-30T04:32:47.250Z,99798.38
2022-08-30T04:35:15.954Z,99807.47
2022-08-30T04:37:44.563Z,99814.25
2022-08-30T04:40:14.240Z,99813.13
2022-08-30T04:42:44.447Z,99822.19
2022-08-30T04:45:16.590Z,99826.91
2022-08-30T04:47:45.798Z,99828.91
2022-08-30T04:50:16.994Z,99824.47
2022-08-30T04:52:45.580Z,99823.66
2022-08-30T04:55:19.508Z,99831.66
2022-08-30T04:57:49.153Z,99833.34
2022-08-30T05:00:20.688Z,99834.66
2022-08-30T05:02:50.048Z,99834.22
2022-08-30T05:05:37.233Z,99829.19
2022-08-30T05:08:05.980Z,99833.09
2022-08-30T05:10:35.260Z,99834.59
2022-08-30T05:13:03.860Z,99838.78
2022-08-30T05:15:33.838Z,99842.59
2022-08-30T05:18:02.710Z,99840.00
2022-08-30T05:20:31.542Z,99843.91
2022-08-30T05:23:00.607Z,99846.56
2022-08-30T05:25:32.572Z,99846.09
2022-08-30T05:28:01.629Z,99840.19
2022-08-30T05:30:35.561Z,99845.03
2022-08-30T05:33:04.215Z,99847.78
2022-08-30T05:35:33.169Z,99840.59
2022-08-30T05:38:01.866Z,99851.19
2022-08-30T05:40:31.573Z,99848.34
2022-08-30T05:43:01.007Z,99844.38
2022-08-30T05:45:29.631Z,99834.78
2022-08-30T05:47:59.773Z,99839.16
2022-08-30T05:50:28.715Z,99851.44
2022-08-30T05:52:57.369Z,99853.59
2022-08-30T05:55:28.611Z,99841.25
2022-08-30T05:57:57.523Z,99847.50
2022-08-30T06:00:26.635Z,99857.09
2022-08-30T06:02:55.751Z,99843.69
2022-08-30T06:05:25.731Z,99844.16
2022-08-30T06:07:54.869Z,99843.09
2022-08-30T06:10:23.458Z,99845.22
2022-08-30T06:12:52.072Z,99846.72
2022-08-30T06:15:20.956Z,99856.81
2022-08-30T06:17:49.619Z,99856.13
2022-08-30T06:20:18.859Z,99859.41
2022-08-30T06:22:49.104Z,99859.72
2022-08-30T06:25:18.364Z,99857.75
2022-08-30T06:27:47.223Z,99859.59
2022-08-30T06:30:16.138Z,99863.53
2022-08-30T06:32:47.856Z,99860.03
2022-08-30T06:35:16.519Z,99860.22
2022-08-30T06:37:45.144Z,99861.22
2022-08-30T06:40:21.647Z,99863.41
2022-08-30T06:42:53.794Z,99864.69
2022-08-30T06:45:23.207Z,99860.84
2022-08-30T06:47:51.913Z,99860.34
2022-08-30T06:50:20.958Z,99856.63
2022-08-30T06:52:50.307Z,99865.88
2022-08-30T06:55:20.509Z,99858.28
2022-08-30T06:57:49.122Z,99861.09
2022-08-30T07:00:18.656Z,99868.31
2022-08-30T07:02:47.385Z,99868.06
2022-08-30T07:05:18.954Z,99870.81
2022-08-30T07:07:48.032Z,99873.50
2022-08-30T07:10:17.320Z,99878.13
2022-08-30T07:12:47.462Z,99872.66
2022-08-30T07:15:16.756Z,99875.91
2022-08-30T07:18:03.085Z,99880.84
2022-08-30T07:20:40.522Z,99881.72
2022-08-30T07:23:10.355Z,99882.84
2022-08-30T07:25:39.724Z,99883.09
2022-08-30T07:28:10.621Z,99874.19
2022-08-30T07:30:40.215Z,99880.38
2022-08-30T07:33:09.577Z,99880.78
2022-08-30T07:35:38.620Z,99883.12
2022-08-30T07:38:07.551Z,99887.91
2022-08-30T07:40:39.348Z,99890.34
2022-08-30T07:43:09.855Z,99889.84
2022-08-30T07:45:39.236Z,99892.88
2022-08-30T07:48:08.464Z,99888.41
2022-08-30T07:50:37.077Z,99888.16
2022-08-30T07:53:07.976Z,99887.81
2022-08-30T07:55:39.644Z,99897.47
2022-08-30T07:58:09.612Z,99886.50
2022-08-30T08:00:38.224Z,99888.13
2022-08-30T08:03:08.404Z,99892.50
2022-08-30T08:05:40.788Z,99887.56
2022-08-30T08:08:10.505Z,99888.34
2022-08-30T08:10:40.982Z,99884.63
2022-08-30T08:13:11.016Z,99891.63
2022-08-30T08:15:39.915Z,99890.50
2022-08-30T08:18:08.603Z,99885.78
2022-08-30T08:20:37.787Z,99891.50
2022-08-30T08:23:06.446Z,99892.84
2022-08-30T08:25:35.462Z,99896.38
2022-08-30T08:28:04.812Z,99889.91
2022-08-30T08:30:35.964Z,99896.44
2022-08-30T08:33:05.370Z,99900.97
2022-08-30T08:35:34.386Z,99905.47
2022-08-30T08:38:03.358Z,99891.47
2022-08-30T08:40:35.735Z,99893.13
2022-08-30T08:43:07.103Z,99897.31
2022-08-30T08:45:43.849Z,99895.56
2022-08-30T08:48:18.252Z,99897.19
2022-08-30T08:51:02.859Z,99894.84
2022-08-30T08:53:51.467Z,99900.06
2022-08-30T08:56:21.992Z,99897.28
2022-08-30T08:58:52.806Z,99888.66
2022-08-30T09:01:24.813Z,99895.28
2022-08-30T09:03:53.631Z,99893.38
2022-08-30T09:06:45.059Z,99882.53
2022-08-30T09:09:14.724Z,99890.34
2022-08-30T09:11:44.465Z,99889.50
2022-08-30T09:14:15.844Z,99891.72
2022-08-30T09:16:54.176Z,99886.53
2022-08-30T09:19:30.653Z,99881.47
2022-08-30T09:22:06.237Z,99872.88
2022-08-30T09:24:40.360Z,99871.13
2022-08-30T09:27:24.267Z,99867.72
2022-08-30T09:29:55.240Z,99869.13
2022-08-30T09:32:29.721Z,99864.72
2022-08-30T09:34:58.991Z,99866.66
2022-08-30T09:37:35.807Z,99861.78
2022-08-30T09:40:11.971Z,99861.81
2022-08-30T09:42:41.236Z,99859.25
2022-08-30T09:45:21.412Z,99856.87
2022-08-30T09:47:51.666Z,99858.06
2022-08-30T09:50:24.135Z,99858.41
2022-08-30T09:52:59.174Z,99847.97
2022-08-30T09:55:38.939Z,99850.75
2022-08-30T09:58:12.878Z,99844.75
2022-08-30T10:00:44.872Z,99838.97
2022-08-30T10:03:35.831Z,99844.19
2022-08-30T10:06:19.785Z,99840.13
2022-08-30T10:08:59.791Z,99833.84
2022-08-30T10:11:34.299Z,99829.34
2022-08-30T10:14:25.641Z,99832.38
2022-08-30T10:17:00.695Z,99831.38
2022-08-30T10:19:42.709Z,99836.53
2022-08-30T10:22:13.421Z,99833.87
2022-08-30T10:24:44.088Z,99827.19
2022-08-30T10:27:16.180Z,99832.53
2022-08-30T10:29:48.919Z,99825.59
2022-08-30T10:32:21.893Z,99821.31
2022-08-30T10:34:55.726Z,99825.75
2022-08-30T10:37:27.005Z,99819.19
2022-08-30T10:40:21.687Z,99817.03
2022-08-30T10:42:52.454Z,99817.25
2022-08-30T10:45:22.189Z,99813.78
2022-08-30T10:47:59.018Z,99806.00
2022-08-30T10:50:39.157Z,99809.25
2022-08-30T10:53:18.588Z,99804.75
2022-08-30T10:55:51.676Z,99798.66
2022-08-30T10:58:20.624Z,99806.28
2022-08-30T11:00:59.718Z,99791.78
2022-08-30T11:04:00.467Z,99791.34
2022-08-30T11:06:36.027Z,99795.00
2022-08-30T11:09:21.956Z,99790.34
2022-08-30T11:12:03.432Z,99795.13
2022-08-30T11:14:32.089Z,99791.84
2022-08-30T11:17:02.188Z,99788.53
2022-08-30T11:19:38.272Z,99785.19
2022-08-30T11:22:18.126Z,99784.12
2022-08-30T11:25:10.091Z,99777.12
2022-08-30T11:27:48.674Z,99772.44
2022-08-30T11:30:51.734Z,99769.62
2022-08-30T11:33:37.226Z,99772.06
2022-08-30T11:36:06.530Z,99771.38
2022-08-30T11:39:04.529Z,99758.66
2022-08-30T11:41:41.594Z,99762.88
2022-08-30T11:44:31.332Z,99764.63
2022-08-30T11:47:01.205Z,99769.28
2022-08-30T11:49:46.355Z,99754.53
2022-08-30T11:52:28.024Z,99760.19
2022-08-30T11:55:26.118Z,99752.97
2022-08-30T11:57:59.994Z,99749.25
2022-08-30T12:00:36.262Z,99743.34
2022-08-30T12:03:06.937Z,99735.53
2022-08-30T12:05:59.094Z,99735.28
2022-08-30T12:08:58.026Z,99735.00
2022-08-30T12:12:06.642Z,99733.81
2022-08-30T12:14:54.734Z,99724.06
2022-08-30T12:17:50.562Z,99724.16
2022-08-30T12:20:24.794Z,99722.53
2022-08-30T12:22:54.043Z,99701.53
2022-08-30T12:25:30.109Z,99710.66
2022-08-30T12:28:16.335Z,99714.13
2022-08-30T12:30:46.562Z,99703.66
2022-08-30T12:33:28.940Z,99704.59
2022-08-30T12:36:01.469Z,99699.84
2022-08-30T12:38:30.904Z,99700.22
2022-08-30T12:41:05.823Z,99695.75
2022-08-30T12:43:41.661Z,99687.47
2022-08-30T12:46:15.158Z,99687.22
2022-08-30T12:48:44.798Z,99683.25
2022-08-30T12:51:33.261Z,99676.09
2022-08-30T12:54:14.663Z,99679.81
2022-08-30T12:56:54.032Z,99669.25
2022-08-30T12:59:58.475Z,99671.53
2022-08-30T13:02:42.951Z,99664.38
2022-08-30T13:05:52.904Z,99668.59
2022-08-30T13:08:25.273Z,99660.69
2022-08-30T13:10:57.331Z,99661.84
2022-08-30T13:13:33.866Z,99667.00
2022-08-30T13:16:26.700Z,99659.34
2022-08-30T13:19:19.623Z,99665.50
2022-08-30T13:21:51.279Z,99657.87
2022-08-30T13:24:24.784Z,99649.09
2022-08-30T13:26:55.692Z,99641.84
2022-08-30T13:29:27.411Z,99648.41
2022-08-30T13:31:57.572Z,99640.09
2022-08-30T13:34:26.649Z,99640.66
2022-08-30T13:36:57.478Z,99634.16
2022-08-30T13:39:26.866Z,99631.81
2022-08-30T13:42:31.224Z,99627.34
2022-08-30T13:44:45.118Z,99627.50
2022-08-30T13:47:37.000Z,99621.47
2022-08-30T13:50:07.589Z,99618.78
2022-08-30T13:52:38.370Z,99616.03
2022-08-30T13:55:08.424Z,99618.22
2022-08-30T13:57:56.052Z,99615.19
2022-08-30T14:00:26.617Z,99621.09
2022-08-30T14:03:00.114Z,99614.56
2022-08-30T14:06:00.364Z,99602.59
2022-08-30T14:11:18.966Z,99604.37
2022-08-30T14:16:39.093Z,99596.22
2022-08-30T14:19:10.186Z,99596.16
2022-08-30T14:21:39.594Z,99597.06
2022-08-30T14:24:08.667Z,99589.66
2022-08-30T14:26:44.020Z,99585.53
2022-08-30T14:29:17.769Z,99583.97
2022-08-30T14:31:48.661Z,99583.16
2022-08-30T14:34:19.568Z,99586.53
2022-08-30T14:36:48.524Z,99581.16
2022-08-30T14:39:18.966Z,99579.78
2022-08-30T14:41:47.972Z,99582.37
2022-08-30T14:44:18.800Z,99581.91
2022-08-30T14:46:47.834Z,99580.97
2022-08-30T14:49:18.352Z,99581.69
2022-08-30T14:51:49.377Z,99576.50
2022-08-30T14:54:21.500Z,99580.97
2022-08-30T14:56:50.404Z,99577.56
2022-08-30T14:59:19.360Z,99577.72
2022-08-30T15:01:48.136Z,99571.94
2022-08-30T15:04:19.091Z,99572.28
2022-08-30T15:06:50.943Z,99580.97
2022-08-30T15:09:23.213Z,99570.12
2022-08-30T15:11:53.082Z,99569.81
2022-08-30T15:14:24.102Z,99565.59
2022-08-30T15:16:54.759Z,99572.44
2022-08-30T15:19:25.127Z,99569.25
2022-08-30T15:21:53.824Z,99565.81
2022-08-30T15:24:29.804Z,99567.47
2022-08-30T15:26:59.938Z,99560.41
2022-08-30T15:29:30.620Z,99561.09
2022-08-30T15:32:02.424Z,99561.09
2022-08-30T15:34:33.161Z,99569.22
2022-08-30T15:37:02.241Z,99567.94
2022-08-30T15:39:32.226Z,99563.09
2022-08-30T15:42:01.802Z,99564.69
2022-08-30T15:44:31.838Z,99558.87
2022-08-30T15:47:00.826Z,99560.19
2022-08-30T15:49:29.946Z,99567.59
2022-08-30T15:52:01.766Z,99567.37
2022-08-30T15:54:30.429Z,99558.87
2022-08-30T15:57:00.095Z,99560.03
2022-08-30T15:59:29.451Z,99561.66
2022-08-30T16:01:58.477Z,99569.66
2022-08-30T16:04:28.408Z,99567.06
2022-08-30T16:06:57.083Z,99557.84
2022-08-30T16:09:30.097Z,99562.56
2022-08-30T16:12:04.903Z,99563.16
2022-08-30T16:14:33.733Z,99558.97
2022-08-30T16:17:03.291Z,99552.16
2022-08-30T16:19:31.987Z,99562.31
2022-08-30T16:22:00.717Z,99555.59
2022-08-30T16:24:31.087Z,99554.03
2022-08-30T16:27:00.044Z,99555.62
2022-08-30T16:29:29.311Z,99546.47
2022-08-30T16:31:58.895Z,99552.06
2022-08-30T16:34:28.117Z,99553.03
2022-08-30T16:36:57.514Z,99554.53
2022-08-30T16:39:26.588Z,99557.53
2022-08-30T16:41:57.141Z,99546.91
2022-08-30T16:44:26.505Z,99552.25
2022-08-30T16:46:58.796Z,99552.81
2022-08-30T16:49:27.974Z,99558.25
2022-08-30T16:51:57.201Z,99551.69
2022-08-30T16:54:25.965Z,99551.34
2022-08-30T16:56:56.436Z,99552.00
2022-08-30T16:59:28.375Z,99553.66
2022-08-30T17:01:57.641Z,99559.69
2022-08-30T17:04:28.303Z,99551.56
2022-08-30T17:06:57.703Z,99552.84
2022-08-30T17:09:27.432Z,99563.06
2022-08-30T17:11:57.420Z,99560.00
2022-08-30T17:14:29.328Z,99565.16
2022-08-30T17:16:58.475Z,99565.34
2022-08-30T17:19:29.993Z,99568.25
2022-08-30T17:21:59.454Z,99571.78
2022-08-30T17:24:28.698Z,99566.56
2022-08-30T17:26:58.994Z,99565.16
2022-08-30T17:29:27.857Z,99568.41
2022-08-30T17:31:56.955Z,99571.28
2022-08-30T17:34:27.058Z,99575.28
2022-08-30T17:36:57.278Z,99579.53
2022-08-30T17:39:26.552Z,99580.50
2022-08-30T17:41:55.942Z,99592.06
2022-08-30T17:44:29.015Z,99589.09
2022-08-30T17:46:59.628Z,99591.75
2022-08-30T17:49:31.930Z,99597.06
2022-08-30T17:52:01.661Z,99600.31
2022-08-30T17:54:31.698Z,99607.00
2022-08-30T17:57:00.619Z,99617.94
2022-08-30T17:59:31.571Z,99614.16
2022-08-30T18:02:02.274Z,99613.34
2022-08-30T18:04:31.371Z,99622.47
2022-08-30T18:07:00.274Z,99615.94
2022-08-30T18:09:33.708Z,99616.53
2022-08-30T18:12:03.391Z,99618.16
2022-08-30T18:14:33.391Z,99624.53
2022-08-30T18:17:04.758Z,99624.72
2022-08-30T18:19:33.747Z,99625.09
2022-08-30T18:22:03.151Z,99637.28
2022-08-30T18:24:32.679Z,99630.88
2022-08-30T18:27:02.019Z,99631.88
2022-08-30T18:29:33.772Z,99635.56
2022-08-30T18:32:03.520Z,99644.09
2022-08-30T18:34:33.124Z,99646.41
2022-08-30T18:37:01.801Z,99651.13
2022-08-30T18:39:34.170Z,99651.19
2022-08-30T18:42:03.982Z,99657.41
2022-08-30T18:44:34.591Z,99652.56
2022-08-30T18:47:05.767Z,99659.25
2022-08-30T18:49:35.883Z,99656.34
2022-08-30T18:52:07.641Z,99656.38
2022-08-30T18:54:39.456Z,99656.50
2022-08-30T18:57:09.917Z,99656.38
2022-08-30T18:59:41.917Z,99655.75
2022-08-30T19:02:13.599Z,99660.25
2022-08-30T19:04:43.364Z,99651.28
2022-08-30T19:07:15.463Z,99656.00
2022-08-30T19:09:45.314Z,99662.91
2022-08-30T19:12:14.681Z,99652.28
2022-08-30T19:14:46.291Z,99665.31
2022-08-30T19:17:15.587Z,99658.19
2022-08-30T19:19:46.112Z,99666.28
2022-08-30T19:22:19.334Z,99660.31
2022-08-30T19:24:49.846Z,99654.62
2022-08-30T19:27:21.488Z,99653.53
2022-08-30T19:30:09.697Z,99653.41
2022-08-30T19:32:38.796Z,99648.31
2022-08-30T19:35:08.662Z,99659.44
2022-08-30T19:37:37.916Z,99655.22
2022-08-30T19:40:11.713Z,99654.47
2022-08-30T19:42:46.390Z,99652.31
2022-08-30T19:45:21.698Z,99647.75
2022-08-30T19:47:52.041Z,99653.13
2022-08-30T19:50:21.799Z,99647.16
2022-08-30T19:52:54.203Z,99649.09
2022-08-30T19:55:28.415Z,99655.06
2022-08-30T19:57:58.883Z,99653.56
2022-08-30T20:00:31.196Z,99651.13
2022-08-30T20:03:01.670Z,99653.53
2022-08-30T20:05:31.044Z,99654.31
2022-08-30T20:08:00.589Z,99660.97
2022-08-30T20:10:29.302Z,99655.31
2022-08-30T20:12:57.989Z,99663.13
2022-08-30T20:15:27.108Z,99656.97
2022-08-30T20:18:05.397Z,99662.81
2022-08-30T20:20:36.698Z,99657.41
2022-08-30T20:23:06.122Z,99656.78
2022-08-30T20:25:37.937Z,99649.28
2022-08-30T20:28:07.074Z,99649.38
2022-08-30T20:30:36.010Z,99645.16
2022-08-30T20:33:09.110Z,99641.09
2022-08-30T20:35:38.426Z,99639.38
2022-08-30T20:38:07.269Z,99638.59
2022-08-30T20:40:37.138Z,99642.19
2022-08-30T20:43:06.370Z,99633.41
2022-08-30T20:45:35.543Z,99629.66
2022-08-30T20:48:06.406Z,99633.28
2022-08-30T20:50:35.303Z,99636.91
2022-08-30T20:53:03.917Z,99641.59
2022-08-30T20:55:32.635Z,99635.37
2022-08-30T20:58:01.527Z,99639.56
2022-08-30T21:00:30.167Z,99633.84
2022-08-30T21:02:58.841Z,99633.63
2022-08-30T21:05:29.247Z,99634.50
2022-08-30T21:07:57.843Z,99633.53
2022-08-30T21:10:26.632Z,99633.22
2022-08-30T21:12:55.527Z,99631.62
2022-08-30T21:15:37.360Z,99631.22
2022-08-30T21:18:07.179Z,99629.53
2022-08-30T21:20:37.153Z,99633.25
2022-08-30T21:23:05.776Z,99633.66
2022-08-30T21:25:36.830Z,99634.94
2022-08-30T21:28:05.453Z,99632.63
2022-08-30T21:30:34.663Z,99628.81
2022-08-30T21:33:04.121Z,99640.50
2022-08-30T21:35:50.433Z,99637.19
2022-08-30T21:38:20.799Z,99645.56
2022-08-30T21:40:49.721Z,99648.13
2022-08-30T21:43:18.504Z,99649.63
2022-08-30T21:45:50.204Z,99655.75
2022-08-30T21:48:19.079Z,99660.44
2022-08-30T21:50:48.141Z,99652.91
2022-08-30T21:53:17.145Z,99663.28
2022-08-30T21:55:48.106Z,99655.44
2022-08-30T21:58:17.295Z,99656.31
2022-08-30T22:00:45.922Z,99654.38
2022-08-30T22:03:15.199Z,99654.91
2022-08-30T22:05:44.006Z,99656.16
2022-08-30T22:08:12.681Z,99657.00
2022-08-30T22:10:41.573Z,99655.19
2022-08-30T22:13:13.126Z,99653.00
2022-08-30T22:15:42.469Z,99650.41
2022-08-30T22:18:11.104Z,99652.53
2022-08-30T22:20:40.881Z,99651.03
2022-08-30T22:23:10.621Z,99646.12
2022-08-30T22:25:39.580Z,99649.66
2022-08-30T22:28:08.306Z,99646.97
2022-08-30T22:30:38.558Z,99648.00
2022-08-30T22:33:07.198Z,99639.00
2022-08-30T22:35:37.411Z,99637.69
2022-08-30T22:38:06.562Z,99637.88
2022-08-30T22:40:35.568Z,99629.84
2022-08-30T22:43:05.231Z,99633.34
2022-08-30T22:45:34.149Z,99631.94
2022-08-30T22:48:04.601Z,99626.66
2022-08-30T22:50:33.231Z,99624.56
2022-08-30T22:53:02.150Z,99619.66
2022-08-30T22:55:31.074Z,99616.47
2022-08-30T22:57:59.891Z,99622.22
2022-08-30T23:00:30.685Z,99625.16
2022-08-30T23:02:59.314Z,99615.09
2022-08-30T23:05:29.766Z,99613.00
2022-08-30T23:07:58.950Z,99603.97
2022-08-30T23:10:29.224Z,99608.00
2022-08-30T23:12:58.572Z,99619.97
2022-08-30T23:15:28.567Z,99625.59
2022-08-30T23:17:58.062Z,99620.44
2022-08-30T23:20:26.947Z,99632.41
2022-08-30T23:22:58.520Z,99626.94
2022-08-30T23:25:47.043Z,99625.78
2022-08-30T23:28:37.399Z,99620.69
2022-08-30T23:31:29.135Z,99626.41
2022-08-30T23:34:15.543Z,99621.72
2022-08-30T23:37:02.555Z,99612.84
2022-08-30T23:39:50.159Z,99613.88
2022-08-30T23:42:38.175Z,99614.41
2022-08-30T23:45:25.617Z,99616.47
2022-08-30T23:48:13.170Z,99611.59
2022-08-30T23:50:59.184Z,99613.22
2022-08-30T23:53:45.554Z,99613.75
2022-08-30T23:56:33.239Z,99605.47
2022-08-30T23:59:19.640Z,99609.94
